Terminal Aerodrome Forecast
Issued by NWS St Louis, MO

Home | Current Version | Previous Version | Text Only | Print | Product List | Glossary On
Versions: 1 2 3 4 5 6 7 8 9 10 11 12 13 14 15
904
FTUS43 KLSX 231350 AAA
TAFCOU
TAF AMD
KCOU 231350Z 2314/2412 VRB05KT P6SM VCSH SCT005 OVC015
      TEMPO 2314/2316 5SM -SHRA OVC005
     FM231600 26005KT P6SM VCSH OVC020
     FM231800 31011G17KT P6SM -SHRA VCTS OVC035CB
     FM232100 32011G17KT P6SM VCTS BKN045CB
     FM240000 31007KT P6SM BKN090
     FM241000 31006KT P6SM BKN025=

USA.gov is the U.S. government's official web portal to all federal, state and local government web resources and services.